Time;durP1;ratioP1;P1;durP2;ratioP2;P2;SDS_P1;SDS_P2;PMS_P1;PMS_P2;Temp;Humidity;BMP_temperature;BMP_pressure;BME280_temperature;BME280_humidity;BME280_pressure;Samples;Min_cycle;Max_cycle;Signal;HPM_P1;HPM_P2
2022/08/11 00:01:55;;;;;;;7.80;2.77;;;;;;;;;;4979056;28;20122;-61
2022/08/11 00:04:24;;;;;;;7.03;2.83;;;;;;;;;;4982972;28;20039;-63
2022/08/11 00:06:52;;;;;;;9.93;3.35;;;;;;;;;;4976566;28;20051;-62
2022/08/11 00:09:20;;;;;;;6.40;2.45;;;;;;;;;;4982864;28;20042;-57
2022/08/11 00:11:49;;;;;;;9.73;3.00;;;;;;;;;;4973056;28;20070;-62
2022/08/11 00:14:18;;;;;;;6.97;2.90;;;;;;;;;;4983308;28;20138;-62
2022/08/11 00:16:53;;;;;;;6.82;2.45;;;;;;;;;;4971903;28;20088;-62
2022/08/11 00:19:23;;;;;;;6.82;2.53;;;;;;;;;;4981680;28;20109;-61
2022/08/11 00:21:49;;;;;;;9.13;2.17;;;;;;;;;;4966281;28;20046;-62
2022/08/11 00:24:16;;;;;;;8.23;2.63;;;;;;;;;;4982433;28;20041;-62
2022/08/11 00:26:47;;;;;;;5.80;2.67;;;;;;;;;;4951340;28;20992;-60
2022/08/11 00:29:14;;;;;;;5.65;2.58;;;;;;;;;;4976316;28;20050;-62
2022/08/11 00:31:43;;;;;;;9.50;2.58;;;;;;;;;;4972987;28;20686;-59
2022/08/11 00:34:12;;;;;;;7.80;2.15;;;;;;;;;;4980673;28;20046;-63
2022/08/11 00:36:42;;;;;;;6.10;2.33;;;;;;;;;;4974748;28;20039;-58
2022/08/11 00:39:10;;;;;;;6.23;2.33;;;;;;;;;;4975124;28;20042;-61
2022/08/11 00:41:42;;;;;;;6.00;2.63;;;;;;;;;;4977958;28;20044;-62
2022/08/11 00:44:23;;;;;;;5.45;2.70;;;;;;;;;;4961631;28;20047;-62
2022/08/11 00:46:56;;;;;;;6.32;3.20;;;;;;;;;;4976496;28;20084;-62
2022/08/11 00:49:30;;;;;;;6.68;2.33;;;;;;;;;;4970592;28;20050;-63
2022/08/11 00:52:07;;;;;;;7.57;2.57;;;;;;;;;;4980229;28;20054;-62
2022/08/11 00:54:54;;;;;;;8.95;2.42;;;;;;;;;;4973822;28;20073;-62
2022/08/11 00:57:39;;;;;;;6.18;2.83;;;;;;;;;;4971561;28;20496;-62
2022/08/11 01:00:11;;;;;;;6.90;2.47;;;;;;;;;;4951967;28;20065;-63
2022/08/11 01:02:54;;;;;;;7.28;2.40;;;;;;;;;;4978261;28;20043;-63
2022/08/11 01:05:50;;;;;;;6.57;2.50;;;;;;;;;;4981182;28;20065;-62
2022/08/11 01:08:32;;;;;;;7.18;2.50;;;;;;;;;;4901424;29;20538;-62
2022/08/11 01:11:18;;;;;;;5.32;2.42;;;;;;;;;;4965667;28;20105;-57
2022/08/11 01:13:56;;;;;;;4.93;2.08;;;;;;;;;;4970470;28;20053;-62
2022/08/11 01:16:38;;;;;;;7.65;2.80;;;;;;;;;;4955652;28;20042;-63
2022/08/11 01:19:20;;;;;;;5.83;2.30;;;;;;;;;;4979397;28;20306;-65
2022/08/11 01:22:20;;;;;;;5.57;2.13;;;;;;;;;;4978443;28;20057;-62
2022/08/11 01:59:48;;;;;;;5.25;2.25;;;;;;;;;;5011076;28;20051;-58
2022/08/11 02:02:44;;;;;;;6.55;2.75;;;;;;;;;;4990931;28;20488;-62
2022/08/11 02:05:18;;;;;;;8.10;2.50;;;;;;;;;;4998794;28;20045;-61
2022/08/11 02:07:53;;;;;;;6.43;2.30;;;;;;;;;;4974326;28;20050;-63
2022/08/11 02:13:12;;;;;;;5.32;2.35;;;;;;;;;;5008182;28;20084;-59
2022/08/11 02:15:42;;;;;;;6.70;2.28;;;;;;;;;;5000871;28;20057;-61
2022/08/11 02:18:11;;;;;;;6.82;2.60;;;;;;;;;;5005908;28;20109;-62
2022/08/11 02:23:41;;;;;;;8.02;2.50;;;;;;;;;;5001219;28;20065;-61
2022/08/11 02:26:09;;;;;;;6.68;2.08;;;;;;;;;;5004749;28;20041;-60
2022/08/11 02:28:42;;;;;;;6.63;2.60;;;;;;;;;;5010812;28;20426;-59
2022/08/11 02:34:05;;;;;;;5.33;2.70;;;;;;;;;;4997342;28;20057;-60
2022/08/11 02:36:38;;;;;;;6.90;2.85;;;;;;;;;;5005028;28;20042;-59
2022/08/11 02:39:09;;;;;;;5.50;2.40;;;;;;;;;;5000593;28;20056;-63
2022/08/11 02:44:28;;;;;;;7.25;2.58;;;;;;;;;;4997099;28;20050;-64
2022/08/11 02:46:58;;;;;;;7.17;2.80;;;;;;;;;;4987642;28;20137;-60
2022/08/11 02:52:20;;;;;;;8.75;2.85;;;;;;;;;;4996545;28;20049;-60
2022/08/11 02:54:53;;;;;;;7.35;2.92;;;;;;;;;;4995212;28;20042;-59
2022/08/11 02:57:22;;;;;;;6.10;3.33;;;;;;;;;;4999857;28;20077;-58
2022/08/11 02:59:50;;;;;;;6.47;3.07;;;;;;;;;;4977766;28;20326;-59
2022/08/11 03:02:33;;;;;;;6.28;3.05;;;;;;;;;;5015316;28;20542;-59
2022/08/11 03:05:10;;;;;;;7.68;2.88;;;;;;;;;;5012088;28;20049;-58
2022/08/11 03:07:42;;;;;;;5.57;2.58;;;;;;;;;;5027664;28;20092;-59
2022/08/11 03:10:10;;;;;;;7.68;2.90;;;;;;;;;;5023283;28;20055;-60
2022/08/11 03:18:15;;;;;;;7.07;2.40;;;;;;;;;;4968987;28;23889;-60
2022/08/11 03:20:46;;;;;;;6.55;2.80;;;;;;;;;;5021076;28;20049;-61
2022/08/11 03:23:17;;;;;;;5.65;2.42;;;;;;;;;;5006506;28;20081;-59
2022/08/11 03:25:46;;;;;;;9.63;2.80;;;;;;;;;;5014905;28;20680;-59
2022/08/11 03:28:20;;;;;;;7.82;2.60;;;;;;;;;;4998372;28;20061;-59
2022/08/11 03:30:50;;;;;;;5.70;2.42;;;;;;;;;;5018609;28;20056;-59
2022/08/11 03:36:10;;;;;;;6.85;2.88;;;;;;;;;;5017382;28;20056;-59
2022/08/11 03:38:44;;;;;;;7.57;3.03;;;;;;;;;;5013516;28;20081;-61
2022/08/11 03:44:04;;;;;;;6.93;3.28;;;;;;;;;;5014908;28;20061;-59
2022/08/11 03:46:44;;;;;;;9.15;3.25;;;;;;;;;;5003683;28;20077;-59
2022/08/11 03:49:19;;;;;;;5.43;2.50;;;;;;;;;;5016715;28;20050;-60
2022/08/11 03:51:54;;;;;;;8.93;3.00;;;;;;;;;;5017783;28;20048;-66
2022/08/11 03:54:27;;;;;;;7.22;3.13;;;;;;;;;;5014801;28;20045;-60
2022/08/11 03:57:15;;;;;;;8.38;3.20;;;;;;;;;;5002635;28;20042;-62
2022/08/11 03:59:56;;;;;;;6.35;3.00;;;;;;;;;;5008907;28;20057;-58
2022/08/11 04:02:41;;;;;;;6.85;3.30;;;;;;;;;;4999270;28;20128;-59
2022/08/11 04:05:32;;;;;;;6.97;3.40;;;;;;;;;;4993207;28;20055;-59
2022/08/11 04:08:19;;;;;;;7.28;3.00;;;;;;;;;;4994414;28;20806;-61
2022/08/11 04:11:03;;;;;;;7.88;2.83;;;;;;;;;;4993553;28;20058;-62
2022/08/11 04:13:53;;;;;;;7.25;3.08;;;;;;;;;;4971456;28;20046;-60
2022/08/11 04:16:37;;;;;;;7.47;3.25;;;;;;;;;;4994448;28;20069;-58
2022/08/11 04:19:36;;;;;;;7.30;3.40;;;;;;;;;;4982639;28;20058;-58
2022/08/11 04:22:21;;;;;;;8.88;3.22;;;;;;;;;;4998401;28;20054;-59
2022/08/11 04:25:04;;;;;;;7.03;3.40;;;;;;;;;;4999373;28;20061;-59
2022/08/11 04:27:50;;;;;;;25.45;5.05;;;;;;;;;;4993487;28;20050;-60
2022/08/11 04:30:22;;;;;;;7.03;3.35;;;;;;;;;;4989016;28;20052;-60
2022/08/11 04:33:12;;;;;;;9.20;3.40;;;;;;;;;;4992238;28;20082;-59
2022/08/11 04:35:48;;;;;;;7.72;3.33;;;;;;;;;;4998022;28;20057;-60
2022/08/11 04:38:32;;;;;;;8.45;3.97;;;;;;;;;;4986598;28;20072;-59
2022/08/11 04:41:20;;;;;;;6.80;3.42;;;;;;;;;;4988364;28;20072;-57
2022/08/11 04:44:06;;;;;;;7.55;3.55;;;;;;;;;;4989574;28;20044;-59
2022/08/11 04:46:41;;;;;;;8.57;3.30;;;;;;;;;;4982315;28;20705;-60
2022/08/11 05:03:54;;;;;;;7.68;3.63;;;;;;;;;;4989031;28;20645;-59
2022/08/11 05:06:45;;;;;;;7.25;3.92;;;;;;;;;;5020218;28;20052;-58
2022/08/11 05:09:30;;;;;;;9.00;3.72;;;;;;;;;;5003876;28;20099;-60
2022/08/11 05:12:09;;;;;;;9.40;3.72;;;;;;;;;;5001629;28;20265;-60
2022/08/11 05:36:50;;;;;;;8.63;4.18;;;;;;;;;;5017776;28;20045;-62
2022/08/11 05:58:34;;;;;;;10.40;3.53;;;;;;;;;;5005834;28;20086;-61
2022/08/11 06:01:02;;;;;;;7.32;3.60;;;;;;;;;;5001490;28;20054;-59
2022/08/11 06:03:29;;;;;;;10.57;3.22;;;;;;;;;;5017836;28;20041;-60
2022/08/11 06:05:56;;;;;;;7.60;3.25;;;;;;;;;;4989881;28;20049;-59
2022/08/11 06:08:29;;;;;;;8.80;3.20;;;;;;;;;;5013259;28;20048;-59
2022/08/11 06:11:00;;;;;;;7.22;4.00;;;;;;;;;;5002635;28;20050;-59
2022/08/11 06:13:27;;;;;;;10.32;3.33;;;;;;;;;;5013269;28;20049;-60
2022/08/11 06:15:54;;;;;;;6.88;3.25;;;;;;;;;;4998701;28;20057;-59
2022/08/11 06:18:21;;;;;;;7.90;3.50;;;;;;;;;;5019732;28;20107;-57
2022/08/11 06:20:48;;;;;;;7.30;3.07;;;;;;;;;;4995004;28;20129;-60
2022/08/11 06:23:17;;;;;;;9.25;2.75;;;;;;;;;;5017607;28;20075;-59
2022/08/11 06:25:45;;;;;;;10.00;3.25;;;;;;;;;;5010712;28;20253;-58
2022/08/11 06:28:15;;;;;;;9.82;3.10;;;;;;;;;;5018911;28;20058;-59
2022/08/11 06:30:42;;;;;;;7.78;2.65;;;;;;;;;;5013146;28;20231;-60
2022/08/11 06:33:10;;;;;;;9.40;3.10;;;;;;;;;;5021485;28;20049;-59
2022/08/11 06:35:46;;;;;;;7.25;3.28;;;;;;;;;;5011447;28;20037;-60
2022/08/11 06:38:15;;;;;;;12.90;3.55;;;;;;;;;;4990374;28;20061;-60
2022/08/11 06:40:43;;;;;;;8.27;3.10;;;;;;;;;;5019082;28;20082;-59
2022/08/11 06:43:19;;;;;;;10.15;2.58;;;;;;;;;;5004905;28;20124;-60
2022/08/11 06:45:51;;;;;;;8.67;3.00;;;;;;;;;;5018256;28;20072;-60
2022/08/11 06:48:19;;;;;;;10.18;2.80;;;;;;;;;;5011372;28;20052;-59
2022/08/11 06:53:34;;;;;;;5.70;2.63;;;;;;;;;;5008272;28;20060;-59
2022/08/11 07:01:46;;;;;;;9.10;3.15;;;;;;;;;;5010374;28;20045;-60
2022/08/11 07:04:13;;;;;;;8.30;2.45;;;;;;;;;;5016805;28;20058;-59
2022/08/11 07:15:40;;;;;;;7.70;2.42;;;;;;;;;;5014331;28;20045;-59
2022/08/11 07:15:43;;;;;;;4.82;2.05;;;;;;;;;;4996546;28;20053;-59
2022/08/11 07:29:20;;;;;;;5.63;2.30;;;;;;;;;;5021011;28;20241;-57
2022/08/11 07:31:50;;;;;;;5.75;2.28;;;;;;;;;;5011990;28;20556;-59
2022/08/11 07:34:19;;;;;;;5.40;2.30;;;;;;;;;;5012677;28;20088;-60
2022/08/11 07:36:48;;;;;;;8.15;2.53;;;;;;;;;;5003865;28;20597;-60
2022/08/11 07:39:40;;;;;;;5.20;2.30;;;;;;;;;;5175795;23;20517;-41
2022/08/11 07:42:07;;;;;;;7.28;3.00;;;;;;;;;;4985039;28;20075;-41
2022/08/11 07:48:10;;;;;;;6.13;2.30;;;;;;;;;;5046820;28;20075;-42
2022/08/11 07:52:52;;;;;;;7.57;2.47;;;;;;;;;;5025386;28;20053;-41
2022/08/11 07:55:24;;;;;;;8.18;2.60;;;;;;;;;;5015367;28;20411;-44
2022/08/11 08:19:50;;;;;;;6.85;2.25;;;;;;;;;;5053851;28;20059;-42
2022/08/11 08:22:17;;;;;;;5.97;1.85;;;;;;;;;;5022268;28;20044;-44
2022/08/11 08:24:44;;;;;;;6.37;2.73;;;;;;;;;;5046098;28;20509;-41
2022/08/11 08:27:13;;;;;;;7.05;1.98;;;;;;;;;;4683656;28;10000001;-42
2022/08/11 08:32:26;;;;;;;6.05;2.28;;;;;;;;;;5017619;28;20108;-44
2022/08/11 08:34:55;;;;;;;6.40;1.93;;;;;;;;;;5043398;28;20108;-41
2022/08/11 08:37:24;;;;;;;7.45;2.63;;;;;;;;;;5030451;28;20531;-42
2022/08/11 08:39:51;;;;;;;5.63;2.00;;;;;;;;;;5036263;28;20060;-42
2022/08/11 08:42:19;;;;;;;5.65;1.60;;;;;;;;;;5035838;28;20048;-40
2022/08/11 08:44:50;;;;;;;6.75;2.30;;;;;;;;;;5047654;28;20044;-42
2022/08/11 08:47:18;;;;;;;6.07;1.70;;;;;;;;;;5012093;28;20062;-41
2022/08/11 08:49:48;;;;;;;6.57;1.67;;;;;;;;;;5025094;28;20134;-41
2022/08/11 08:52:18;;;;;;;4.75;1.90;;;;;;;;;;5039378;28;20053;-41
2022/08/11 08:54:45;;;;;;;6.45;1.70;;;;;;;;;;5033646;28;20453;-41
2022/08/11 08:57:13;;;;;;;7.07;2.22;;;;;;;;;;5042324;28;20048;-43
2022/08/11 08:59:41;;;;;;;6.07;1.90;;;;;;;;;;5028275;28;20059;-43
2022/08/11 09:02:10;;;;;;;6.72;1.73;;;;;;;;;;5048730;28;20053;-41
2022/08/11 09:04:37;;;;;;;6.63;2.15;;;;;;;;;;5046701;28;20692;-41
2022/08/11 09:07:11;;;;;;;6.85;2.30;;;;;;;;;;5048518;28;20411;-42
2022/08/11 09:09:41;;;;;;;5.15;1.55;;;;;;;;;;5042446;28;20048;-44
2022/08/11 09:12:08;;;;;;;5.13;2.00;;;;;;;;;;5035474;28;20053;-41
2022/08/11 09:17:19;;;;;;;4.75;1.50;;;;;;;;;;5046591;28;20080;-41
2022/08/11 09:19:46;;;;;;;5.22;1.95;;;;;;;;;;5029676;28;20044;-40
2022/08/11 09:27:43;;;;;;;5.43;1.42;;;;;;;;;;5040895;28;20056;-43
2022/08/11 09:30:11;;;;;;;7.47;2.00;;;;;;;;;;5056841;28;20048;-41
2022/08/11 09:32:39;;;;;;;4.50;1.90;;;;;;;;;;5041634;28;20209;-43
2022/08/11 09:35:06;;;;;;;5.45;1.73;;;;;;;;;;5042031;28;20067;-43
2022/08/11 09:40:32;;;;;;;4.72;2.00;;;;;;;;;;5046956;28;20063;-42
2022/08/11 09:45:49;;;;;;;6.53;2.08;;;;;;;;;;5049786;28;20050;-46
2022/08/11 09:48:17;;;;;;;6.65;2.35;;;;;;;;;;5036258;28;20056;-42
2022/08/11 09:50:45;;;;;;;5.20;1.90;;;;;;;;;;5043682;28;20481;-42
2022/08/11 09:53:12;;;;;;;5.40;2.00;;;;;;;;;;5047801;28;20127;-40
2022/08/11 09:55:40;;;;;;;5.70;2.20;;;;;;;;;;5035001;28;20055;-42
2022/08/11 09:58:16;;;;;;;5.72;2.10;;;;;;;;;;5052353;28;20078;-43
2022/08/11 10:00:44;;;;;;;5.45;2.03;;;;;;;;;;5044060;28;20048;-42
2022/08/11 10:03:12;;;;;;;4.83;2.00;;;;;;;;;;5040953;28;20496;-41
2022/08/11 10:08:27;;;;;;;4.70;1.98;;;;;;;;;;5042156;28;20879;-41
2022/08/11 10:10:56;;;;;;;7.65;2.50;;;;;;;;;;5045116;28;20060;-42
2022/08/11 10:13:26;;;;;;;6.13;2.10;;;;;;;;;;5041668;28;20044;-44
2022/08/11 10:15:53;;;;;;;5.43;2.30;;;;;;;;;;5049081;28;20072;-40
2022/08/11 10:18:48;;;;;;;5.80;2.20;;;;;;;;;;5043862;28;20041;-42
2022/08/11 10:21:17;;;;;;;6.20;2.33;;;;;;;;;;5044948;28;20056;-40
2022/08/11 10:34:50;;;;;;;6.95;2.30;;;;;;;;;;5049708;28;20115;-44
2022/08/11 10:37:17;;;;;;;5.00;1.98;;;;;;;;;;5057034;28;20075;-41
2022/08/11 10:39:45;;;;;;;8.48;2.97;;;;;;;;;;5047066;28;20080;-42
2022/08/11 10:45:00;;;;;;;7.43;3.00;;;;;;;;;;5040859;28;20048;-40
2022/08/11 10:47:35;;;;;;;6.15;2.30;;;;;;;;;;5050558;28;20111;-41
2022/08/11 11:01:03;;;;;;;6.60;2.55;;;;;;;;;;5046753;28;20053;-41
2022/08/11 11:03:31;;;;;;;7.65;2.85;;;;;;;;;;5043373;28;20045;-41
2022/08/11 11:06:01;;;;;;;4.97;2.33;;;;;;;;;;5041364;28;20134;-41
2022/08/11 11:11:15;;;;;;;8.13;2.97;;;;;;;;;;5048738;28;20151;-40
2022/08/11 11:19:21;;;;;;;6.50;2.25;;;;;;;;;;5001278;28;20565;-42
2022/08/11 11:21:50;;;;;;;5.63;2.72;;;;;;;;;;5035394;28;20075;-43
2022/08/11 11:24:26;;;;;;;5.80;2.37;;;;;;;;;;5051877;28;20071;-42
2022/08/11 11:26:55;;;;;;;6.88;2.50;;;;;;;;;;5038625;28;20079;-48
2022/08/11 11:29:45;;;;;;;5.80;2.47;;;;;;;;;;5052051;28;20059;-41
2022/08/11 11:32:20;;;;;;;6.00;2.90;;;;;;;;;;5052458;28;20052;-40
2022/08/11 11:34:58;;;;;;;4.20;2.00;;;;;;;;;;5044277;28;20060;-40
2022/08/11 11:37:24;;;;;;;4.43;1.73;;;;;;;;;;5053173;28;20558;-41
2022/08/11 11:39:51;;;;;;;5.53;2.40;;;;;;;;;;5024649;28;20049;-42
2022/08/11 11:42:18;;;;;;;4.95;1.90;;;;;;;;;;5055103;28;20048;-45
2022/08/11 11:44:46;;;;;;;6.50;2.00;;;;;;;;;;4684738;28;10000393;-41
2022/08/11 11:47:13;;;;;;;5.25;2.25;;;;;;;;;;5044960;28;20056;-44
2022/08/11 11:49:42;;;;;;;5.18;2.10;;;;;;;;;;5037782;28;20049;-43
2022/08/11 11:52:13;;;;;;;4.43;1.60;;;;;;;;;;5050279;28;20067;-41
2022/08/11 11:54:40;;;;;;;6.40;2.38;;;;;;;;;;5039880;28;20053;-41
2022/08/11 12:02:32;;;;;;;5.30;2.40;;;;;;;;;;5026826;28;20659;-43
2022/08/11 12:05:01;;;;;;;4.43;2.23;;;;;;;;;;5028723;28;20041;-41
2022/08/11 12:10:20;;;;;;;6.20;2.15;;;;;;;;;;5060551;28;20290;-41
2022/08/11 12:15:32;;;;;;;4.30;1.87;;;;;;;;;;5037025;28;20051;-42
2022/08/11 12:17:59;;;;;;;4.78;1.80;;;;;;;;;;5048530;28;20040;-41
2022/08/11 12:20:28;;;;;;;5.22;2.20;;;;;;;;;;5032666;28;20051;-42
2022/08/11 12:28:25;;;;;;;4.63;2.00;;;;;;;;;;5047041;28;20049;-41
2022/08/11 12:30:52;;;;;;;5.05;2.08;;;;;;;;;;5034768;28;20045;-46
2022/08/11 12:33:19;;;;;;;5.60;2.10;;;;;;;;;;5052022;28;21628;-42
2022/08/11 12:35:48;;;;;;;7.18;2.05;;;;;;;;;;5042681;28;20041;-41
2022/08/11 12:38:16;;;;;;;5.60;2.10;;;;;;;;;;5030110;28;20048;-41
2022/08/11 12:46:14;;;;;;;4.68;1.95;;;;;;;;;;5047570;28;20060;-42
2022/08/11 12:54:15;;;;;;;4.77;1.90;;;;;;;;;;5044768;28;20069;-43
2022/08/11 13:04:59;;;;;;;5.97;1.80;;;;;;;;;;5061062;28;20041;-42
2022/08/11 13:07:28;;;;;;;5.47;2.00;;;;;;;;;;5041931;28;20533;-41
2022/08/11 13:09:55;;;;;;;4.82;1.50;;;;;;;;;;5045148;28;20053;-40
2022/08/11 13:15:08;;;;;;;4.40;1.50;;;;;;;;;;5037979;28;20049;-43
2022/08/11 13:17:35;;;;;;;5.47;2.00;;;;;;;;;;5039445;28;20115;-41
2022/08/11 13:20:01;;;;;;;7.73;1.80;;;;;;;;;;5035105;28;20052;-44
2022/08/11 13:22:29;;;;;;;7.85;1.80;;;;;;;;;;5055572;28;20104;-42
2022/08/11 13:24:57;;;;;;;6.30;2.72;;;;;;;;;;5048021;28;20056;-42
2022/08/11 13:27:24;;;;;;;5.78;2.15;;;;;;;;;;5042508;28;20363;-41
2022/08/11 13:31:09;;;;;;;6.55;2.47;;;;;;;;;;5041383;28;20067;-43
2022/08/11 13:32:39;;;;;;;5.50;2.10;;;;;;;;;;5024676;28;20083;-44
2022/08/11 13:35:06;;;;;;;5.13;1.90;;;;;;;;;;5020136;28;20311;-45
2022/08/11 13:37:35;;;;;;;5.43;2.05;;;;;;;;;;5024326;28;20048;-43
2022/08/11 13:40:01;;;;;;;5.32;1.98;;;;;;;;;;5042986;28;20536;-42
2022/08/11 13:42:28;;;;;;;6.85;2.40;;;;;;;;;;5047107;28;20056;-44
2022/08/11 13:44:56;;;;;;;4.93;1.70;;;;;;;;;;5033718;28;20167;-42
2022/08/11 13:47:25;;;;;;;5.53;1.85;;;;;;;;;;5039715;28;20506;-44
2022/08/11 13:49:52;;;;;;;4.43;1.77;;;;;;;;;;5034482;28;20045;-43
2022/08/11 13:52:19;;;;;;;6.15;1.95;;;;;;;;;;5049649;28;20131;-44
2022/08/11 13:54:48;;;;;;;6.22;1.70;;;;;;;;;;5037574;28;20120;-41
2022/08/11 13:57:17;;;;;;;5.63;1.60;;;;;;;;;;5052362;28;20136;-43
2022/08/11 13:59:45;;;;;;;6.53;2.20;;;;;;;;;;5041146;28;20374;-41
2022/08/11 14:02:13;;;;;;;6.15;2.25;;;;;;;;;;5029084;28;20087;-42
2022/08/11 14:04:41;;;;;;;5.38;2.38;;;;;;;;;;5033613;28;20052;-42
2022/08/11 14:07:09;;;;;;;5.20;2.33;;;;;;;;;;5030657;28;20052;-43
2022/08/11 14:09:38;;;;;;;5.43;1.40;;;;;;;;;;4700115;28;10000244;-41
2022/08/11 14:14:57;;;;;;;6.53;2.20;;;;;;;;;;5049171;28;20048;-41
2022/08/11 14:17:24;;;;;;;6.47;2.17;;;;;;;;;;5047589;28;20037;-41
2022/08/11 14:19:52;;;;;;;3.97;1.45;;;;;;;;;;5044679;28;20083;-42
2022/08/11 14:22:21;;;;;;;4.93;1.73;;;;;;;;;;5035885;28;20145;-41
2022/08/11 14:24:48;;;;;;;4.32;1.50;;;;;;;;;;5031239;28;20048;-42
2022/08/11 14:27:17;;;;;;;4.50;2.00;;;;;;;;;;5054881;28;20040;-43
2022/08/11 14:29:44;;;;;;;5.67;1.90;;;;;;;;;;5043325;28;20079;-40
2022/08/11 14:32:12;;;;;;;5.13;2.15;;;;;;;;;;5035326;28;20524;-44
2022/08/11 14:34:42;;;;;;;3.97;1.73;;;;;;;;;;5023659;28;20079;-44
2022/08/11 14:37:10;;;;;;;6.00;1.98;;;;;;;;;;5044243;28;20060;-41
2022/08/11 14:39:40;;;;;;;4.75;1.85;;;;;;;;;;5031104;28;20083;-42
2022/08/11 14:47:55;;;;;;;4.68;1.67;;;;;;;;;;5045835;28;20037;-43
2022/08/11 14:50:25;;;;;;;3.72;1.50;;;;;;;;;;5030721;28;20441;-42
2022/08/11 14:52:53;;;;;;;5.10;2.17;;;;;;;;;;5033955;28;20564;-40
2022/08/11 14:58:08;;;;;;;4.55;2.10;;;;;;;;;;5030848;28;20048;-43
2022/08/11 15:00:36;;;;;;;5.28;1.92;;;;;;;;;;5029604;28;20072;-42
2022/08/11 15:03:11;;;;;;;5.60;2.45;;;;;;;;;;5016141;28;20037;-42
2022/08/11 15:05:39;;;;;;;6.47;2.20;;;;;;;;;;4986067;28;20315;-41
2022/08/11 15:08:06;;;;;;;4.57;1.70;;;;;;;;;;4953818;28;20052;-41
2022/08/11 15:10:40;;;;;;;3.72;1.60;;;;;;;;;;5031907;28;20053;-42
2022/08/11 15:13:06;;;;;;;6.47;2.00;;;;;;;;;;5010920;28;20071;-39
2022/08/11 15:18:25;;;;;;;4.25;1.30;;;;;;;;;;4975488;28;20096;-41
2022/08/11 15:26:18;;;;;;;4.70;1.95;;;;;;;;;;5039607;28;20044;-41
2022/08/11 15:48:07;;;;;;;5.27;2.20;;;;;;;;;;5031056;28;20131;-42
2022/08/11 15:50:38;;;;;;;6.63;1.95;;;;;;;;;;5043252;28;20052;-41
2022/08/11 15:53:07;;;;;;;4.43;1.67;;;;;;;;;;5034485;28;20054;-44
2022/08/11 15:55:34;;;;;;;6.72;1.88;;;;;;;;;;5047018;28;20075;-42
2022/08/11 16:06:18;;;;;;;4.63;2.15;;;;;;;;;;5041550;28;20056;-43
2022/08/11 16:08:44;;;;;;;5.15;1.85;;;;;;;;;;5026875;28;20708;-41
2022/08/11 16:11:11;;;;;;;3.63;1.50;;;;;;;;;;5035339;28;20041;-45
2022/08/11 16:16:38;;;;;;;6.15;1.40;;;;;;;;;;4968091;28;22234;-42
2022/08/11 16:19:08;;;;;;;4.10;1.45;;;;;;;;;;4977975;28;20105;-45
2022/08/11 16:21:38;;;;;;;3.67;1.48;;;;;;;;;;5004984;28;20175;-42
2022/08/11 16:24:06;;;;;;;7.53;1.83;;;;;;;;;;5048317;28;20048;-42
2022/08/11 16:26:35;;;;;;;4.33;1.50;;;;;;;;;;5017447;28;20045;-43
2022/08/11 16:29:02;;;;;;;3.60;1.40;;;;;;;;;;5053174;28;20048;-40
2022/08/11 16:31:32;;;;;;;4.78;2.33;;;;;;;;;;5041286;28;20522;-42
2022/08/11 16:33:59;;;;;;;6.45;1.92;;;;;;;;;;5050504;28;20048;-41
2022/08/11 16:39:17;;;;;;;4.83;1.90;;;;;;;;;;5043610;28;20718;-42
2022/08/11 16:47:15;;;;;;;8.40;2.13;;;;;;;;;;5043327;28;20138;-42
2022/08/11 16:49:45;;;;;;;5.57;2.28;;;;;;;;;;5025936;28;20048;-39
2022/08/11 16:52:12;;;;;;;5.57;1.90;;;;;;;;;;5050246;28;20052;-43
2022/08/11 16:54:41;;;;;;;6.38;1.95;;;;;;;;;;5048026;28;20189;-44
2022/08/11 17:00:01;;;;;;;6.03;1.90;;;;;;;;;;4983874;28;20050;-43
2022/08/11 17:13:43;;;;;;;6.65;1.88;;;;;;;;;;5018170;28;20053;-42
2022/08/11 17:16:14;;;;;;;4.82;2.33;;;;;;;;;;5050462;28;20559;-46
2022/08/11 17:18:44;;;;;;;7.43;2.33;;;;;;;;;;4691340;28;9999891;-43
2022/08/11 17:21:21;;;;;;;5.13;2.03;;;;;;;;;;5044040;28;20048;-44
2022/08/11 17:23:49;;;;;;;8.23;2.50;;;;;;;;;;5044725;28;20056;-41
2022/08/11 17:26:18;;;;;;;8.13;2.40;;;;;;;;;;5041222;28;20057;-40
2022/08/11 17:28:45;;;;;;;5.70;2.40;;;;;;;;;;5036871;28;20049;-39
2022/08/11 17:36:43;;;;;;;5.38;2.08;;;;;;;;;;5028142;28;20049;-44
2022/08/11 17:39:10;;;;;;;5.33;2.20;;;;;;;;;;5053652;28;20075;-41
2022/08/11 17:50:07;;;;;;;4.72;2.35;;;;;;;;;;4976510;28;20080;-42
2022/08/11 18:00:50;;;;;;;6.53;3.03;;;;;;;;;;4689304;28;10000046;-44
2022/08/11 18:03:31;;;;;;;4.73;2.23;;;;;;;;;;4682007;28;10000556;-42
2022/08/11 18:05:59;;;;;;;4.80;2.20;;;;;;;;;;5036718;28;20064;-41
